createdAt,value
2022-08-25T00:02:11.094Z,5.65
2022-08-25T00:02:54.904Z,5.72
2022-08-25T00:03:28.194Z,5.93
2022-08-25T00:04:11.121Z,6.35
2022-08-25T00:05:32.383Z,5.55
2022-08-25T00:06:06.756Z,6.45
2022-08-25T00:06:42.988Z,5.70
2022-08-25T00:07:14.324Z,5.97
2022-08-25T00:08:09.385Z,5.53
2022-08-25T00:08:41.824Z,5.47
2022-08-25T00:09:15.873Z,4.95
2022-08-25T00:09:47.757Z,5.75
2022-08-25T00:10:20.344Z,5.43
2022-08-25T00:10:59.941Z,5.53
2022-08-25T00:11:36.719Z,5.80
2022-08-25T00:12:08.621Z,6.30
2022-08-25T00:12:39.982Z,6.00
2022-08-25T00:13:11.566Z,5.60
2022-08-25T00:13:45.051Z,5.75
2022-08-25T00:14:22.011Z,6.05
2022-08-25T00:14:53.383Z,5.47
2022-08-25T00:15:25.416Z,5.93
2022-08-25T00:15:57.071Z,6.00
2022-08-25T00:16:31.304Z,6.13
2022-08-25T00:17:03.561Z,5.90
2022-08-25T00:17:35.227Z,6.20
2022-08-25T00:18:06.717Z,6.20
2022-08-25T00:19:42.684Z,6.05
2022-08-25T00:20:14.737Z,6.53
2022-08-25T00:20:48.774Z,6.40
2022-08-25T00:21:21.446Z,5.95
2022-08-25T00:21:53.268Z,5.85
2022-08-25T00:22:24.616Z,6.63
2022-08-25T00:22:56.206Z,5.90
2022-08-25T00:23:27.547Z,6.45
2022-08-25T00:24:02.122Z,6.23
2022-08-25T00:24:33.883Z,6.00
2022-08-25T00:25:05.711Z,6.22
2022-08-25T00:25:37.529Z,6.20
2022-08-25T00:26:09.779Z,6.43
2022-08-25T00:26:43.788Z,6.80
2022-08-25T00:27:15.316Z,6.25
2022-08-25T00:27:48.062Z,5.90
2022-08-25T00:28:19.444Z,6.07
2022-08-25T00:28:50.989Z,5.20
2022-08-25T00:29:26.466Z,5.83
2022-08-25T00:29:57.859Z,5.55
2022-08-25T00:30:30.225Z,5.90
2022-08-25T00:31:02.212Z,6.50
2022-08-25T00:31:38.694Z,6.85
2022-08-25T00:32:10.453Z,7.20
2022-08-25T00:32:42.038Z,6.70
2022-08-25T00:33:20.945Z,6.60
2022-08-25T00:33:53.564Z,6.75
2022-08-25T00:34:29.745Z,6.68
2022-08-25T00:35:01.107Z,6.80
2022-08-25T00:35:32.549Z,6.45
2022-08-25T00:36:04.820Z,6.72
2022-08-25T00:36:36.508Z,7.22
2022-08-25T00:37:09.520Z,7.70
2022-08-25T00:37:59.259Z,7.60
2022-08-25T00:38:31.326Z,6.45
2022-08-25T00:39:02.931Z,6.68
2022-08-25T00:39:34.370Z,6.88
2022-08-25T00:40:07.243Z,7.22
2022-08-25T00:40:40.628Z,7.37
2022-08-25T00:41:32.328Z,6.70
2022-08-25T00:42:10.787Z,7.40
2022-08-25T00:42:47.675Z,7.13
2022-08-25T00:43:19.466Z,7.13
2022-08-25T00:43:57.905Z,8.00
2022-08-25T00:44:31.276Z,6.88
2022-08-25T00:45:03.025Z,7.47
2022-08-25T00:45:36.238Z,7.97
2022-08-25T00:46:34.495Z,7.93
2022-08-25T00:47:06.613Z,7.47
2022-08-25T00:47:38.145Z,7.53
2022-08-25T00:48:09.528Z,7.65
2022-08-25T00:49:00.887Z,7.72
2022-08-25T00:49:57.843Z,7.68
2022-08-25T00:50:32.180Z,7.95
2022-08-25T00:51:07.120Z,7.80
2022-08-25T00:51:51.668Z,7.80
2022-08-25T00:52:27.704Z,7.50
2022-08-25T00:53:01.983Z,7.38
2022-08-25T00:54:27.161Z,7.75
2022-08-25T00:55:21.764Z,7.80
2022-08-25T00:55:54.076Z,7.18
2022-08-25T00:56:44.464Z,7.63
2022-08-25T00:57:22.185Z,7.22
2022-08-25T00:58:14.443Z,8.00
2022-08-25T00:58:46.102Z,7.93
2022-08-25T00:59:22.992Z,7.38
2022-08-25T00:59:54.801Z,8.10
2022-08-25T01:00:38.131Z,7.93
2022-08-25T01:01:09.720Z,8.07
2022-08-25T01:01:41.195Z,7.75
2022-08-25T01:02:15.165Z,8.40
2022-08-25T01:02:47.172Z,8.07
2022-08-25T01:03:19.753Z,8.65
2022-08-25T01:03:51.268Z,7.93
2022-08-25T01:04:23.720Z,8.50
2022-08-25T01:04:55.261Z,8.57
2022-08-25T01:05:28.169Z,8.93
2022-08-25T01:06:19.523Z,7.80
2022-08-25T01:07:10.540Z,8.10
2022-08-25T01:08:39.597Z,8.25
2022-08-25T01:09:14.101Z,8.65
2022-08-25T01:09:47.610Z,8.23
2022-08-25T01:11:11.701Z,7.90
2022-08-25T01:11:44.831Z,8.27
2022-08-25T01:12:16.299Z,8.65
2022-08-25T01:12:48.109Z,8.47
2022-08-25T01:13:28.929Z,8.75
2022-08-25T01:14:06.189Z,8.18
2022-08-25T01:14:38.397Z,8.27
2022-08-25T01:15:12.178Z,7.80
2022-08-25T01:15:45.608Z,7.78
2022-08-25T01:16:17.504Z,8.32
2022-08-25T01:16:51.033Z,8.05
2022-08-25T01:17:28.255Z,7.65
2022-08-25T01:18:00.054Z,7.60
2022-08-25T01:18:44.276Z,8.40
2022-08-25T01:19:15.756Z,8.02
2022-08-25T01:19:47.604Z,8.80
2022-08-25T01:20:29.395Z,7.75
2022-08-25T01:21:00.936Z,7.55
2022-08-25T01:21:39.620Z,8.48
2022-08-25T01:22:11.965Z,8.13
2022-08-25T01:23:02.124Z,7.55
2022-08-25T01:23:34.102Z,7.78
2022-08-25T01:24:24.361Z,7.20
2022-08-25T01:25:03.995Z,8.17
2022-08-25T01:25:57.436Z,7.95
2022-08-25T01:26:31.662Z,7.65
2022-08-25T01:27:03.939Z,7.15
2022-08-25T01:27:35.296Z,8.02
2022-08-25T01:28:07.144Z,7.70
2022-08-25T01:29:00.851Z,8.98
2022-08-25T01:29:32.309Z,8.13
2022-08-25T01:30:23.232Z,8.18
2022-08-25T01:30:54.857Z,8.57
2022-08-25T01:31:28.847Z,8.10
2022-08-25T01:32:52.647Z,7.32
2022-08-25T01:33:24.120Z,8.00
2022-08-25T01:33:56.695Z,7.65
2022-08-25T01:34:31.305Z,7.57
2022-08-25T01:35:03.104Z,7.57
2022-08-25T01:35:35.724Z,8.18
2022-08-25T01:36:07.452Z,9.13
2022-08-25T01:36:40.584Z,8.13
2022-08-25T01:37:14.648Z,7.97
2022-08-25T01:37:46.384Z,7.32
2022-08-25T01:38:20.859Z,8.15
2022-08-25T01:38:55.468Z,7.65
2022-08-25T01:39:29.024Z,7.63
2022-08-25T01:40:19.090Z,8.40
2022-08-25T01:40:50.463Z,7.10
2022-08-25T01:41:40.043Z,8.18
2022-08-25T01:42:37.782Z,8.13
2022-08-25T01:43:15.012Z,7.53
2022-08-25T01:43:46.591Z,8.00
2022-08-25T01:44:18.747Z,8.48
2022-08-25T01:44:50.564Z,8.23
2022-08-25T01:45:22.112Z,7.72
2022-08-25T01:45:53.628Z,8.68
2022-08-25T01:46:25.099Z,8.48
2022-08-25T01:46:59.884Z,7.40
2022-08-25T01:47:32.319Z,8.48
2022-08-25T01:48:05.181Z,7.97
2022-08-25T01:48:55.146Z,8.18
2022-08-25T01:49:26.533Z,6.87
2022-08-25T01:49:57.867Z,8.00
2022-08-25T01:50:29.545Z,7.93
2022-08-25T01:51:57.229Z,7.10
2022-08-25T01:52:45.404Z,7.00
2022-08-25T01:53:24.223Z,8.13
2022-08-25T01:53:55.713Z,8.18
2022-08-25T01:54:27.105Z,7.63
2022-08-25T01:54:58.455Z,7.53
2022-08-25T01:55:31.073Z,6.90
2022-08-25T01:56:11.370Z,7.28
2022-08-25T01:56:42.997Z,8.43
2022-08-25T01:57:15.596Z,7.97
2022-08-25T01:57:46.960Z,8.57
2022-08-25T01:58:42.209Z,7.95
2022-08-25T01:59:37.836Z,7.38
2022-08-25T02:00:13.319Z,7.95
2022-08-25T02:00:47.206Z,8.20
2022-08-25T02:01:21.355Z,7.80
2022-08-25T02:02:00.058Z,7.27
2022-08-25T02:02:31.754Z,8.00
2022-08-25T02:03:04.478Z,7.88
2022-08-25T02:03:45.669Z,7.68
2022-08-25T02:04:18.868Z,7.75
2022-08-25T02:04:53.807Z,7.40
2022-08-25T02:05:43.460Z,6.93
2022-08-25T02:06:29.804Z,7.65
2022-08-25T02:07:21.809Z,7.50
2022-08-25T02:08:11.720Z,7.70
2022-08-25T02:08:43.524Z,7.87
2022-08-25T02:09:17.017Z,7.97
2022-08-25T02:09:48.403Z,7.55
2022-08-25T02:10:19.761Z,7.70
2022-08-25T02:10:53.167Z,7.28
2022-08-25T02:11:25.660Z,7.60
2022-08-25T02:11:57.432Z,6.95
2022-08-25T02:12:29.005Z,7.75
2022-08-25T02:13:00.368Z,7.68
2022-08-25T02:13:32.543Z,7.60
2022-08-25T02:14:04.445Z,7.00
2022-08-25T02:14:55.245Z,7.93
2022-08-25T02:15:27.068Z,7.50
2022-08-25T02:16:01.006Z,6.85
2022-08-25T02:16:36.813Z,7.43
2022-08-25T02:17:09.700Z,7.13
2022-08-25T02:17:41.061Z,7.35
2022-08-25T02:18:12.708Z,6.75
2022-08-25T02:18:46.293Z,7.25
2022-08-25T02:19:19.669Z,6.68
2022-08-25T02:19:51.057Z,7.10
2022-08-25T02:20:23.900Z,6.95
2022-08-25T02:20:55.332Z,7.30
2022-08-25T02:22:17.443Z,6.90
2022-08-25T02:22:53.155Z,7.03
2022-08-25T02:23:28.481Z,6.90
2022-08-25T02:24:00.337Z,7.82
2022-08-25T02:24:32.391Z,8.25
2022-08-25T02:25:04.307Z,6.88
2022-08-25T02:26:27.047Z,6.97
2022-08-25T02:26:59.312Z,7.15
2022-08-25T02:27:30.667Z,6.70
2022-08-25T02:28:02.157Z,7.13
2022-08-25T02:28:52.265Z,7.40
2022-08-25T02:29:24.066Z,6.88
2022-08-25T02:29:55.892Z,7.78
2022-08-25T02:30:27.572Z,8.00
2022-08-25T02:31:01.351Z,7.40
2022-08-25T02:31:33.815Z,6.87
2022-08-25T02:32:05.848Z,7.22
2022-08-25T02:33:14.814Z,7.25
2022-08-25T02:33:46.540Z,8.13
2022-08-25T02:34:17.921Z,7.70
2022-08-25T02:34:49.527Z,6.80
2022-08-25T02:35:21.541Z,7.43
2022-08-25T02:36:11.414Z,7.90
2022-08-25T02:36:43.736Z,7.93
2022-08-25T02:37:15.182Z,7.90
2022-08-25T02:37:46.713Z,6.93
2022-08-25T02:39:10.629Z,8.13
2022-08-25T02:39:41.999Z,7.93
2022-08-25T02:40:32.237Z,6.60
2022-08-25T02:41:12.492Z,8.95
2022-08-25T02:41:43.914Z,7.68
2022-08-25T02:42:34.177Z,7.13
2022-08-25T02:43:05.864Z,6.65
2022-08-25T02:43:37.423Z,6.95
2022-08-25T02:44:09.376Z,6.77
2022-08-25T02:44:41.068Z,7.05
2022-08-25T02:45:12.528Z,6.90
2022-08-25T02:45:43.896Z,7.18
2022-08-25T02:46:18.484Z,6.60
2022-08-25T02:46:49.905Z,7.10
2022-08-25T02:47:26.892Z,7.28
2022-08-25T02:47:58.652Z,7.00
2022-08-25T02:48:30.258Z,6.45
2022-08-25T02:49:01.956Z,6.68
2022-08-25T02:49:33.416Z,7.30
2022-08-25T02:50:55.371Z,6.68
2022-08-25T02:51:29.938Z,7.40
2022-08-25T02:52:01.354Z,7.20
2022-08-25T02:52:33.128Z,7.22
2022-08-25T02:53:04.512Z,7.13
2022-08-25T02:54:28.584Z,6.95
2022-08-25T02:54:59.981Z,6.93
2022-08-25T02:55:31.568Z,6.37
2022-08-25T02:56:25.747Z,6.95
2022-08-25T02:56:57.095Z,6.75
2022-08-25T02:57:28.463Z,7.70
2022-08-25T02:57:59.832Z,7.07
2022-08-25T02:58:31.212Z,6.97
2022-08-25T02:59:04.134Z,8.50
2022-08-25T02:59:35.896Z,7.38
2022-08-25T03:00:09.769Z,7.55
2022-08-25T03:00:44.291Z,7.18
2022-08-25T03:01:16.477Z,7.23
2022-08-25T03:01:47.937Z,7.50
2022-08-25T03:03:08.420Z,6.95
2022-08-25T03:03:41.358Z,7.25
2022-08-25T03:04:14.791Z,7.93
2022-08-25T03:04:46.218Z,7.35
2022-08-25T03:05:17.733Z,7.90
2022-08-25T03:05:49.478Z,7.35
2022-08-25T03:06:23.176Z,6.38
2022-08-25T03:06:54.980Z,6.80
2022-08-25T03:07:44.864Z,7.28
2022-08-25T03:08:16.357Z,6.90
2022-08-25T03:08:47.727Z,7.25
2022-08-25T03:09:19.275Z,7.40
2022-08-25T03:09:50.617Z,6.20
2022-08-25T03:10:21.981Z,6.35
2022-08-25T03:10:53.336Z,6.63
2022-08-25T03:11:26.484Z,6.95
2022-08-25T03:11:57.965Z,6.68
2022-08-25T03:12:29.304Z,6.27
2022-08-25T03:13:01.228Z,6.30
2022-08-25T03:13:33.152Z,6.45
2022-08-25T03:14:58.426Z,6.95
2022-08-25T03:15:30.681Z,6.63
2022-08-25T03:16:03.184Z,6.38
2022-08-25T03:16:34.681Z,6.53
2022-08-25T03:17:08.677Z,7.15
2022-08-25T03:17:40.398Z,6.70
2022-08-25T03:18:12.237Z,5.93
2022-08-25T03:18:45.947Z,6.45
2022-08-25T03:19:18.044Z,6.47
2022-08-25T03:19:49.403Z,6.25
2022-08-25T03:20:22.379Z,5.95
2022-08-25T03:20:53.988Z,7.03
2022-08-25T03:21:45.823Z,6.38
2022-08-25T03:22:17.195Z,6.68
2022-08-25T03:22:49.192Z,6.72
2022-08-25T03:23:20.766Z,6.75
2022-08-25T03:23:52.507Z,7.00
2022-08-25T03:24:24.407Z,5.90
2022-08-25T03:25:15.719Z,5.97
2022-08-25T03:26:05.815Z,6.38
2022-08-25T03:26:55.916Z,6.60
2022-08-25T03:27:30.373Z,6.75
2022-08-25T03:28:02.041Z,5.68
2022-08-25T03:28:33.886Z,6.13
2022-08-25T03:29:05.537Z,6.15
2022-08-25T03:29:36.881Z,5.38
2022-08-25T03:30:09.027Z,6.43
2022-08-25T03:30:41.804Z,6.30
2022-08-25T03:31:13.312Z,6.18
2022-08-25T03:31:45.200Z,7.30
2022-08-25T03:32:16.664Z,6.30
2022-08-25T03:32:48.085Z,6.00
2022-08-25T03:33:20.075Z,6.32
2022-08-25T03:33:51.480Z,6.40
2022-08-25T03:34:23.019Z,6.28
2022-08-25T03:34:54.374Z,6.00
2022-08-25T03:35:44.660Z,6.10
2022-08-25T03:36:16.063Z,6.03
2022-08-25T03:36:50.049Z,6.15
2022-08-25T03:37:39.689Z,5.82
2022-08-25T03:38:11.492Z,6.18
2022-08-25T03:38:43.192Z,6.88
2022-08-25T03:39:14.945Z,6.38
2022-08-25T03:39:46.329Z,8.23
2022-08-25T03:40:37.092Z,6.50
2022-08-25T03:41:16.512Z,5.80
2022-08-25T03:41:48.067Z,6.10
2022-08-25T03:42:19.642Z,5.82
2022-08-25T03:42:51.047Z,6.72
2022-08-25T03:43:22.877Z,6.15
2022-08-25T03:43:55.467Z,5.75
2022-08-25T03:44:26.856Z,6.57
2022-08-25T03:44:58.343Z,6.22
2022-08-25T03:45:48.392Z,5.65
2022-08-25T03:46:39.937Z,6.57
2022-08-25T03:47:11.496Z,6.35
2022-08-25T03:47:46.321Z,6.97
2022-08-25T03:48:17.826Z,6.10
2022-08-25T03:48:49.891Z,6.00
2022-08-25T03:49:23.472Z,5.82
2022-08-25T03:49:55.145Z,6.35
2022-08-25T03:50:51.561Z,6.18
2022-08-25T03:51:25.956Z,6.43
2022-08-25T03:51:57.331Z,6.38
2022-08-25T03:52:28.860Z,6.68
2022-08-25T03:53:00.224Z,5.85
2022-08-25T03:53:31.592Z,6.10
2022-08-25T03:54:04.347Z,6.95
2022-08-25T03:54:35.916Z,6.57
2022-08-25T03:55:10.372Z,6.03
2022-08-25T03:55:42.268Z,6.35
2022-08-25T03:56:13.620Z,5.78
2022-08-25T03:56:45.402Z,5.63
2022-08-25T03:57:16.849Z,5.93
2022-08-25T03:57:48.404Z,6.22
2022-08-25T03:58:21.788Z,6.22
2022-08-25T03:58:53.695Z,6.03
2022-08-25T03:59:26.999Z,6.28
2022-08-25T03:59:58.362Z,5.50
2022-08-25T04:00:29.812Z,6.15
2022-08-25T04:01:01.240Z,5.68
2022-08-25T04:01:34.259Z,6.03
2022-08-25T04:02:06.948Z,6.53
2022-08-25T04:02:39.320Z,5.80
2022-08-25T04:03:11.132Z,5.85
2022-08-25T04:03:43.114Z,6.45
2022-08-25T04:04:16.118Z,6.37
2022-08-25T04:04:47.583Z,6.00
2022-08-25T04:05:20.141Z,6.28
2022-08-25T04:05:51.661Z,6.20
2022-08-25T04:06:23.532Z,6.38
2022-08-25T04:06:54.915Z,5.85
2022-08-25T04:07:26.454Z,5.95
2022-08-25T04:07:57.812Z,6.45
2022-08-25T04:08:48.127Z,5.97
2022-08-25T04:09:19.752Z,5.80
2022-08-25T04:09:51.748Z,5.80
2022-08-25T04:11:30.540Z,6.07
2022-08-25T04:12:02.026Z,5.53
2022-08-25T04:12:34.168Z,5.93
2022-08-25T04:13:05.716Z,5.45
2022-08-25T04:13:37.604Z,5.35
2022-08-25T04:14:27.807Z,5.90
2022-08-25T04:14:59.386Z,5.80
2022-08-25T04:15:30.743Z,5.40
2022-08-25T04:16:04.325Z,5.90
2022-08-25T04:16:36.097Z,6.38
2022-08-25T04:17:08.428Z,6.05
2022-08-25T04:17:40.379Z,6.50
2022-08-25T04:18:13.189Z,5.82
2022-08-25T04:18:45.668Z,5.70
2022-08-25T04:19:16.991Z,6.35
2022-08-25T04:19:48.317Z,6.22
2022-08-25T04:20:19.700Z,6.07
2022-08-25T04:20:51.031Z,5.50
2022-08-25T04:21:23.086Z,6.00
2022-08-25T04:21:56.563Z,6.30
2022-08-25T04:22:29.147Z,6.47
2022-08-25T04:23:01.535Z,6.07
2022-08-25T04:23:32.913Z,5.90
2022-08-25T04:24:05.120Z,6.50
2022-08-25T04:24:36.483Z,6.65
2022-08-25T04:25:08.389Z,6.10
2022-08-25T04:25:43.979Z,5.97
2022-08-25T04:26:51.115Z,6.40
2022-08-25T04:27:22.432Z,5.77
2022-08-25T04:27:55.246Z,6.20
2022-08-25T04:28:26.696Z,6.13
2022-08-25T04:29:00.695Z,6.40
2022-08-25T04:29:32.612Z,5.63
2022-08-25T04:30:06.071Z,6.45
2022-08-25T04:30:42.475Z,6.78
2022-08-25T04:31:18.692Z,6.47
2022-08-25T04:32:39.795Z,6.78
2022-08-25T04:33:11.151Z,6.70
2022-08-25T04:34:01.235Z,6.30
2022-08-25T04:34:32.740Z,6.35
2022-08-25T04:35:05.319Z,6.45
2022-08-25T04:35:36.726Z,6.07
2022-08-25T04:38:07.483Z,6.13
2022-08-25T04:38:40.704Z,6.50
2022-08-25T04:39:12.736Z,6.18
2022-08-25T04:40:33.080Z,5.95
2022-08-25T04:42:14.688Z,7.45
2022-08-25T04:42:47.256Z,6.82
2022-08-25T04:43:19.531Z,6.55
2022-08-25T04:43:51.838Z,6.18
2022-08-25T04:44:23.234Z,6.65
2022-08-25T04:44:54.622Z,6.65
2022-08-25T04:45:26.078Z,6.43
2022-08-25T04:45:58.022Z,5.43
2022-08-25T04:46:31.627Z,6.30
2022-08-25T04:48:41.479Z,6.57
2022-08-25T04:49:12.847Z,6.03
2022-08-25T04:49:44.171Z,6.10
2022-08-25T04:50:16.508Z,6.22
2022-08-25T04:51:06.425Z,6.68
2022-08-25T04:51:40.599Z,5.22
2022-08-25T04:52:14.415Z,5.77
2022-08-25T04:52:46.447Z,5.50
2022-08-25T04:53:18.423Z,6.65
2022-08-25T04:53:51.908Z,7.40
2022-08-25T04:54:23.894Z,5.53
2022-08-25T04:54:55.308Z,5.72
2022-08-25T04:55:26.867Z,6.93
2022-08-25T04:56:01.865Z,5.82
2022-08-25T04:56:36.248Z,6.97
2022-08-25T04:57:07.645Z,6.40
2022-08-25T04:57:39.066Z,6.00
2022-08-25T04:58:14.899Z,6.03
2022-08-25T04:59:08.972Z,6.30
2022-08-25T04:59:40.354Z,6.30
2022-08-25T05:00:12.467Z,6.15
2022-08-25T05:00:43.944Z,6.20
2022-08-25T05:01:21.836Z,5.60
2022-08-25T05:01:53.259Z,6.35
2022-08-25T05:02:25.208Z,5.28
2022-08-25T05:02:56.763Z,6.18
2022-08-25T05:03:28.189Z,6.17
2022-08-25T05:04:52.430Z,5.85
2022-08-25T05:05:24.058Z,6.32
2022-08-25T05:05:55.377Z,6.15
2022-08-25T05:06:46.567Z,5.95
2022-08-25T05:07:17.994Z,5.60
2022-08-25T05:07:49.374Z,6.22
2022-08-25T05:08:39.188Z,6.80
2022-08-25T05:09:32.312Z,6.28
2022-08-25T05:10:04.488Z,5.83
2022-08-25T05:10:40.793Z,5.20
2022-08-25T05:11:32.984Z,5.60
2022-08-25T05:12:06.355Z,6.47
2022-08-25T05:12:56.680Z,5.90
2022-08-25T05:13:28.666Z,6.22
2022-08-25T05:14:01.874Z,5.35
2022-08-25T05:14:33.265Z,5.90
2022-08-25T05:15:25.268Z,5.93
2022-08-25T05:16:00.228Z,4.97
2022-08-25T05:16:31.854Z,5.73
2022-08-25T05:17:03.243Z,5.60
2022-08-25T05:17:34.564Z,6.15
2022-08-25T05:18:06.046Z,6.30
2022-08-25T05:18:37.430Z,5.55
2022-08-25T05:19:08.815Z,5.25
2022-08-25T05:20:31.030Z,6.00
2022-08-25T05:21:05.335Z,6.25
2022-08-25T05:21:37.823Z,5.57
2022-08-25T05:22:09.380Z,5.40
2022-08-25T05:22:44.652Z,5.80
2022-08-25T05:23:16.162Z,7.07
2022-08-25T05:23:48.076Z,5.63
2022-08-25T05:24:20.636Z,6.35
2022-08-25T05:24:51.952Z,6.40
2022-08-25T05:26:20.559Z,6.07
2022-08-25T05:27:11.126Z,5.90
2022-08-25T05:28:01.327Z,5.55
2022-08-25T05:28:32.969Z,5.70
2022-08-25T05:29:05.566Z,6.00
2022-08-25T05:29:36.908Z,6.65
2022-08-25T05:30:10.640Z,5.97
2022-08-25T05:30:43.195Z,6.32
2022-08-25T05:31:14.931Z,5.55
2022-08-25T05:31:50.292Z,5.88
2022-08-25T05:32:22.033Z,5.75
2022-08-25T05:33:11.878Z,5.80
2022-08-25T05:33:43.950Z,5.47
2022-08-25T05:34:15.500Z,5.50
2022-08-25T05:34:46.820Z,5.68
2022-08-25T05:35:19.775Z,5.75
2022-08-25T05:35:51.741Z,5.65
2022-08-25T05:36:24.505Z,6.45
2022-08-25T05:36:57.320Z,5.30
2022-08-25T05:37:28.666Z,5.53
2022-08-25T05:38:00.042Z,5.32
2022-08-25T05:38:31.807Z,6.38
2022-08-25T05:39:04.276Z,5.38
2022-08-25T05:39:35.638Z,5.23
2022-08-25T05:40:08.230Z,6.00
2022-08-25T05:40:39.614Z,5.65
2022-08-25T05:41:18.054Z,5.80
2022-08-25T05:41:49.394Z,5.78
2022-08-25T05:42:20.908Z,4.93
2022-08-25T05:42:52.220Z,5.30
2022-08-25T05:43:25.475Z,6.07
2022-08-25T05:43:57.372Z,5.30
2022-08-25T05:44:28.700Z,5.28
2022-08-25T05:45:00.066Z,5.60
2022-08-25T05:45:50.445Z,5.82
2022-08-25T05:46:22.730Z,5.32
2022-08-25T05:46:54.046Z,5.70
2022-08-25T05:47:25.439Z,5.30
2022-08-25T05:47:57.911Z,5.05
2022-08-25T05:48:29.407Z,5.03
2022-08-25T05:49:00.950Z,5.82
2022-08-25T05:49:50.728Z,5.65
2022-08-25T05:50:22.616Z,4.80
2022-08-25T05:50:55.653Z,4.70
2022-08-25T05:51:27.484Z,5.18
2022-08-25T05:51:59.244Z,5.35
2022-08-25T05:52:30.571Z,5.43
2022-08-25T05:53:02.162Z,5.88
2022-08-25T05:53:34.964Z,5.43
2022-08-25T05:54:06.331Z,5.85
2022-08-25T05:54:37.756Z,5.32
2022-08-25T05:56:00.193Z,5.55
2022-08-25T05:56:31.619Z,5.03
2022-08-25T05:57:21.519Z,5.53
2022-08-25T05:58:43.141Z,5.63
2022-08-25T05:59:14.461Z,5.72
2022-08-25T05:59:45.807Z,5.05
2022-08-25T06:00:17.596Z,5.25
2022-08-25T06:01:08.662Z,5.03
2022-08-25T06:02:17.594Z,5.15
2022-08-25T06:02:49.594Z,5.03
2022-08-25T06:03:21.041Z,5.13
2022-08-25T06:03:55.548Z,5.15
2022-08-25T06:04:27.403Z,5.90
2022-08-25T06:04:58.881Z,5.72
2022-08-25T06:05:30.573Z,4.75
2022-08-25T06:06:07.178Z,4.65
2022-08-25T06:07:28.481Z,5.68
2022-08-25T06:07:59.917Z,5.82
2022-08-25T06:08:33.756Z,6.10
2022-08-25T06:09:06.773Z,5.30
2022-08-25T06:09:39.988Z,5.55
2022-08-25T06:10:30.243Z,5.50
2022-08-25T06:11:01.593Z,5.60
2022-08-25T06:11:32.935Z,5.40
2022-08-25T06:12:04.624Z,5.68
2022-08-25T06:12:36.194Z,5.40
2022-08-25T06:13:08.300Z,5.72
2022-08-25T06:13:41.038Z,5.85
2022-08-25T06:14:12.479Z,5.30
2022-08-25T06:14:43.845Z,5.30
2022-08-25T06:15:19.213Z,5.00
2022-08-25T06:15:50.648Z,5.18
2022-08-25T06:16:22.058Z,5.13
2022-08-25T06:17:11.823Z,5.55
2022-08-25T06:17:43.228Z,5.07
2022-08-25T06:18:33.567Z,5.20
2022-08-25T06:19:05.307Z,5.55
2022-08-25T06:19:37.056Z,5.65
2022-08-25T06:20:17.481Z,4.90
2022-08-25T06:20:48.815Z,5.40
2022-08-25T06:21:20.532Z,5.30
2022-08-25T06:21:58.646Z,5.32
2022-08-25T06:22:29.996Z,5.55
2022-08-25T06:23:01.620Z,5.90
2022-08-25T06:23:32.961Z,5.10
2022-08-25T06:24:05.211Z,5.10
2022-08-25T06:24:36.977Z,5.05
2022-08-25T06:25:10.183Z,5.50
2022-08-25T06:25:41.731Z,5.32
2022-08-25T06:26:20.922Z,5.90
2022-08-25T06:26:53.584Z,5.80
2022-08-25T06:27:24.996Z,5.65
2022-08-25T06:28:45.111Z,5.28
2022-08-25T06:29:16.701Z,5.22
2022-08-25T06:29:48.094Z,5.63
2022-08-25T06:30:43.632Z,5.35
2022-08-25T06:31:15.196Z,6.05
2022-08-25T06:31:47.095Z,5.35
2022-08-25T06:32:18.640Z,5.30
2022-08-25T06:32:50.042Z,5.30
2022-08-25T06:33:21.396Z,4.93
2022-08-25T06:34:41.776Z,5.50
2022-08-25T06:35:17.317Z,4.63
2022-08-25T06:35:48.872Z,4.88
2022-08-25T06:36:20.437Z,5.97
2022-08-25T06:36:52.099Z,5.55
2022-08-25T06:37:42.436Z,5.03
2022-08-25T06:38:14.752Z,5.17
2022-08-25T06:38:46.634Z,5.28
2022-08-25T06:39:17.968Z,5.45
2022-08-25T06:39:49.368Z,5.95
2022-08-25T06:40:21.155Z,6.00
2022-08-25T06:40:52.720Z,5.10
2022-08-25T06:41:25.235Z,6.15
2022-08-25T06:42:07.990Z,5.95
2022-08-25T06:42:39.600Z,5.95
2022-08-25T06:44:19.087Z,4.67
2022-08-25T06:44:50.549Z,5.38
2022-08-25T06:45:22.425Z,5.63
2022-08-25T06:46:42.485Z,5.35
2022-08-25T06:47:15.675Z,5.82
2022-08-25T06:47:47.034Z,5.65
2022-08-25T06:48:18.489Z,4.90
2022-08-25T06:48:50.172Z,5.50
2022-08-25T06:49:39.884Z,5.40
2022-08-25T06:50:11.235Z,5.00
2022-08-25T06:50:43.483Z,4.78
2022-08-25T06:51:17.832Z,5.70
2022-08-25T06:51:50.144Z,5.80
2022-08-25T06:52:21.725Z,6.45
2022-08-25T06:53:50.912Z,5.55
2022-08-25T06:54:22.392Z,5.68
2022-08-25T06:54:54.567Z,6.47
2022-08-25T06:55:25.935Z,5.80
2022-08-25T06:55:58.291Z,5.77
2022-08-25T06:58:45.475Z,5.50
2022-08-25T06:59:17.402Z,5.53
2022-08-25T06:59:49.110Z,5.93
2022-08-25T07:02:15.473Z,5.68
2022-08-25T07:02:53.529Z,4.50
2022-08-25T07:03:25.243Z,5.20
2022-08-25T07:05:06.465Z,4.93
2022-08-25T07:06:47.823Z,5.65
2022-08-25T07:08:08.295Z,5.28
2022-08-25T07:08:39.943Z,4.88
2022-08-25T07:09:12.543Z,5.47
2022-08-25T07:09:44.087Z,4.82
2022-08-25T07:10:15.431Z,4.90
2022-08-25T07:10:50.814Z,5.38
2022-08-25T07:11:22.234Z,5.72
2022-08-25T07:11:54.187Z,5.15
2022-08-25T07:12:25.520Z,5.25
2022-08-25T07:12:57.272Z,5.30
2022-08-25T07:13:28.652Z,5.22
2022-08-25T07:14:06.052Z,4.60
2022-08-25T07:14:37.980Z,4.90
2022-08-25T07:15:19.749Z,4.97
2022-08-25T07:15:55.208Z,5.50
2022-08-25T07:16:29.568Z,4.65
2022-08-25T07:17:01.553Z,4.68
2022-08-25T07:17:32.959Z,4.30
2022-08-25T07:18:05.869Z,4.78
2022-08-25T07:18:37.569Z,4.40
2022-08-25T07:19:10.147Z,4.43
2022-08-25T07:19:46.092Z,4.35
2022-08-25T07:20:37.104Z,4.20
2022-08-25T07:21:09.362Z,4.10
2022-08-25T07:21:45.399Z,3.77
2022-08-25T07:23:07.045Z,4.00
2022-08-25T07:23:39.635Z,3.95
2022-08-25T07:24:13.329Z,3.97
2022-08-25T07:24:44.701Z,3.47
2022-08-25T07:25:17.690Z,3.90
2022-08-25T07:25:49.599Z,3.55
2022-08-25T07:26:37.430Z,3.28
2022-08-25T07:27:28.431Z,3.88
2022-08-25T07:28:18.527Z,3.70
2022-08-25T07:28:50.111Z,3.55
2022-08-25T07:29:32.123Z,3.55
2022-08-25T07:31:00.813Z,3.30
2022-08-25T07:31:32.405Z,3.22
2022-08-25T07:32:05.261Z,3.03
2022-08-25T07:32:36.712Z,3.58
2022-08-25T07:33:08.354Z,3.78
2022-08-25T07:33:59.944Z,3.00
2022-08-25T07:34:51.903Z,3.10
2022-08-25T07:35:26.160Z,3.35
2022-08-25T07:35:58.047Z,3.47
2022-08-25T07:36:40.002Z,3.70
2022-08-25T07:37:11.711Z,3.42
2022-08-25T07:37:50.109Z,2.88
2022-08-25T07:38:21.575Z,3.22
2022-08-25T07:38:53.221Z,3.10
2022-08-25T07:40:24.417Z,2.40
2022-08-25T07:41:05.210Z,3.30
2022-08-25T07:41:38.839Z,2.53
2022-08-25T07:42:13.000Z,3.13
2022-08-25T07:42:44.457Z,3.55
2022-08-25T07:43:15.811Z,2.78
2022-08-25T07:43:47.617Z,2.60
2022-08-25T07:45:13.111Z,2.78
2022-08-25T07:45:49.205Z,3.00
2022-08-25T07:46:21.074Z,2.95
2022-08-25T07:46:53.756Z,2.80
2022-08-25T07:47:25.163Z,2.75
2022-08-25T07:48:01.847Z,3.05
2022-08-25T07:48:33.228Z,3.20
2022-08-25T07:49:54.684Z,3.30
2022-08-25T07:50:27.987Z,2.92
2022-08-25T07:51:01.089Z,2.85
2022-08-25T07:52:24.248Z,3.03
2022-08-25T07:52:57.658Z,3.13
2022-08-25T07:53:29.201Z,2.70
2022-08-25T07:54:00.609Z,2.60
2022-08-25T07:54:34.799Z,2.63
2022-08-25T07:55:08.187Z,2.60
2022-08-25T07:55:42.755Z,2.58
2022-08-25T07:56:17.590Z,2.70
2022-08-25T07:56:48.972Z,3.13
2022-08-25T07:57:39.805Z,2.58
2022-08-25T07:58:12.274Z,2.75
2022-08-25T07:58:44.457Z,2.30
2022-08-25T07:59:16.034Z,2.45
2022-08-25T08:00:07.261Z,2.85
2022-08-25T08:00:42.341Z,3.05
2022-08-25T08:01:16.338Z,3.55
2022-08-25T08:01:47.718Z,2.40
2022-08-25T08:02:19.614Z,2.45
2022-08-25T08:03:50.867Z,3.13
2022-08-25T08:04:22.819Z,2.67
2022-08-25T08:05:43.496Z,2.50
2022-08-25T08:06:17.209Z,2.42
2022-08-25T08:07:11.995Z,2.50
2022-08-25T08:07:43.980Z,2.75
2022-08-25T08:08:15.391Z,2.60
2022-08-25T08:08:49.247Z,2.90
2022-08-25T08:09:21.077Z,2.60
2022-08-25T08:10:04.770Z,3.45
2022-08-25T08:11:56.088Z,2.83
2022-08-25T08:12:27.927Z,2.30
2022-08-25T08:12:59.723Z,3.15
2022-08-25T08:13:35.745Z,2.50
2022-08-25T08:14:11.564Z,2.50
2022-08-25T08:14:45.064Z,2.95
2022-08-25T08:15:37.383Z,2.47
2022-08-25T08:16:29.638Z,2.50
2022-08-25T08:17:09.236Z,2.13
2022-08-25T08:18:29.663Z,2.83
2022-08-25T08:19:03.166Z,2.47
2022-08-25T08:19:35.667Z,2.70
2022-08-25T08:20:09.356Z,2.67
2022-08-25T08:20:44.430Z,3.20
2022-08-25T08:21:26.775Z,2.65
2022-08-25T08:22:02.342Z,2.60
2022-08-25T08:22:34.056Z,2.90
2022-08-25T08:23:27.844Z,2.67
2022-08-25T08:23:59.943Z,2.85
2022-08-25T08:24:44.768Z,3.10
2022-08-25T08:26:57.428Z,2.78
2022-08-25T08:27:26.141Z,3.13
2022-08-25T08:27:57.509Z,3.13
2022-08-25T08:28:28.964Z,2.72
2022-08-25T08:29:00.904Z,3.10
2022-08-25T08:29:32.579Z,2.70
2022-08-25T08:30:05.572Z,3.40
2022-08-25T08:30:55.677Z,2.85
2022-08-25T08:31:28.340Z,2.80
2022-08-25T08:32:18.801Z,2.75
2022-08-25T08:33:08.668Z,3.15